Strona główna
METAR-TAF:

METAR-TAF

Lotnisko :

Port lotniczy Carcassonne

Carcassonne, Francja

Szerokość geograficzna: 43-13N, Długość geograficzna: 002-19E, wysokość: 130 m

Aktualna obserwacja pogody

Raport powstał 24 minut temu, godzina 15:30 UTC
Wiatr 4 kt od zachód
Temperatura 16°C
Wilgotność 88%
Ciśnienie 1002 hPa
Widzialność 10 km lub więcej

METAR: LFMK 041530Z AUTO 28004KT 9999 FEW018/// BKN046/// BKN054/// ///CB 16/14 Q1002

czas: 17:54 (15:54 UTC)


TAF: brakujący

Obserwacja i prognoza pogody dla ponad 4000 lotnisk (raport METAR i TAF).

Dostępne stacje oznaczono żółtymi i czerwonymi punktami na mapie.

Najedź kursorem aby zobaczyć nazwę stacji.

Kliknij aby zobaczyć obserwacje i prognozy pogody.

Aby zmienić mapę: kliknij na zielony przycisk z czarnym krzyżykiem, aby powiększyć; na zielony przycisk z myślnikiem, aby pomniejszyć; na zielone strzałki, aby przejść do map sąsiednich.


METAR-TAF: